createdAt,value
2022-12-01T00:01:19.993Z,91.16
2022-12-01T00:03:47.140Z,91.11
2022-12-01T00:06:16.393Z,90.06
2022-12-01T00:09:05.074Z,89.71
2022-12-01T00:11:33.059Z,89.33
2022-12-01T00:14:01.440Z,88.63
2022-12-01T00:16:28.585Z,88.75
2022-12-01T00:18:55.796Z,87.74
2022-12-01T00:21:24.987Z,88.03
2022-12-01T00:23:54.482Z,87.66
2022-12-01T00:26:22.725Z,87.46
2022-12-01T00:28:51.534Z,87.48
2022-12-01T00:31:19.125Z,86.87
2022-12-01T00:33:46.595Z,87.52
2022-12-01T00:36:13.607Z,87.96
2022-12-01T00:38:40.618Z,88.11
2022-12-01T00:41:07.711Z,87.90
2022-12-01T00:43:34.833Z,88.10
2022-12-01T00:46:02.161Z,87.81
2022-12-01T00:48:29.549Z,87.12
2022-12-01T00:50:56.768Z,87.54
2022-12-01T00:53:24.826Z,87.40
2022-12-01T00:55:54.319Z,86.87
2022-12-01T00:58:22.297Z,86.84
2022-12-01T01:00:49.943Z,86.84
2022-12-01T01:03:17.249Z,86.78
2022-12-01T01:05:44.365Z,86.74
2022-12-01T01:08:15.152Z,86.46
2022-12-01T01:10:47.140Z,86.88
2022-12-01T01:13:15.501Z,86.39
2022-12-01T01:15:42.795Z,86.06
2022-12-01T01:18:11.744Z,86.28
2022-12-01T01:20:38.724Z,85.33
2022-12-01T01:23:06.131Z,85.81
2022-12-01T01:25:34.077Z,85.79
2022-12-01T01:28:01.185Z,85.20
2022-12-01T01:30:28.884Z,85.13
2022-12-01T01:32:55.882Z,85.34
2022-12-01T01:35:22.833Z,85.44
2022-12-01T01:37:51.097Z,86.12
2022-12-01T01:40:18.980Z,85.28
2022-12-01T01:42:46.287Z,85.32
2022-12-01T01:45:25.540Z,86.09
2022-12-01T01:47:54.427Z,85.92
2022-12-01T01:50:25.212Z,86.48
2022-12-01T01:52:58.766Z,86.32
2022-12-01T01:55:25.999Z,86.67
2022-12-01T01:57:57.435Z,87.25
2022-12-01T02:00:24.718Z,87.84
2022-12-01T02:02:53.896Z,88.03
2022-12-01T02:05:24.444Z,87.92
2022-12-01T02:07:53.659Z,88.21
2022-12-01T02:10:24.782Z,88.26
2022-12-01T02:13:31.306Z,88.83
2022-12-01T02:16:45.992Z,88.35
2022-12-01T02:20:02.384Z,88.59
2022-12-01T02:23:10.735Z,89.05
2022-12-01T02:26:14.930Z,89.80
2022-12-01T02:29:24.545Z,90.15
2022-12-01T02:32:04.404Z,90.27
2022-12-01T02:34:44.758Z,90.05
2022-12-01T02:37:33.958Z,89.64
2022-12-01T02:40:23.971Z,88.64
2022-12-01T02:43:07.653Z,89.46
2022-12-01T02:45:50.779Z,89.79
2022-12-01T02:48:30.863Z,89.05
2022-12-01T02:51:03.061Z,89.16
2022-12-01T02:53:30.143Z,89.06
2022-12-01T02:55:59.180Z,88.38
2022-12-01T02:58:26.299Z,88.61
2022-12-01T03:01:18.372Z,88.84
2022-12-01T03:04:22.219Z,88.75
2022-12-01T03:07:16.921Z,88.74
2022-12-01T03:10:15.531Z,89.50
2022-12-01T03:13:10.100Z,89.25
2022-12-01T03:16:03.898Z,89.31
2022-12-01T03:19:03.576Z,89.64
2022-12-01T03:21:58.890Z,89.78
2022-12-01T03:24:32.177Z,90.24
2022-12-01T03:27:02.653Z,90.84
2022-12-01T03:29:40.723Z,90.70
2022-12-01T03:32:19.849Z,90.04
2022-12-01T03:34:54.916Z,90.69
2022-12-01T03:37:40.631Z,90.63
2022-12-01T03:40:12.419Z,91.03
2022-12-01T03:42:45.224Z,90.90
2022-12-01T03:45:19.871Z,91.42
2022-12-01T03:47:47.098Z,91.79
2022-12-01T03:50:15.313Z,89.80
2022-12-01T03:53:10.790Z,89.23
2022-12-01T03:55:42.292Z,90.31
2022-12-01T03:58:14.435Z,90.51
2022-12-01T04:00:41.902Z,91.26
2022-12-01T04:03:16.549Z,91.82
2022-12-01T04:05:43.794Z,90.37
2022-12-01T04:08:10.986Z,90.48
2022-12-01T04:10:38.071Z,90.41
2022-12-01T04:13:05.210Z,90.62
2022-12-01T04:15:32.212Z,90.79
2022-12-01T04:17:59.326Z,91.11
2022-12-01T04:20:26.273Z,90.68
2022-12-01T04:22:53.250Z,89.61
2022-12-01T04:25:20.400Z,90.49
2022-12-01T04:27:47.577Z,89.70
2022-12-01T04:30:15.312Z,89.06
2022-12-01T04:32:43.672Z,89.92
2022-12-01T04:35:12.413Z,89.81
2022-12-01T04:37:40.353Z,89.99
2022-12-01T04:40:08.735Z,89.80
2022-12-01T04:42:35.755Z,90.71
2022-12-01T04:45:03.845Z,90.63
2022-12-01T04:47:31.008Z,91.25
2022-12-01T04:49:58.039Z,91.94
2022-12-01T04:52:25.032Z,89.54
2022-12-01T04:54:52.100Z,89.34
2022-12-01T04:57:19.078Z,90.21
2022-12-01T04:59:46.179Z,89.60
2022-12-01T05:02:13.349Z,87.43
2022-12-01T05:04:41.861Z,87.88
2022-12-01T05:07:09.401Z,87.08
2022-12-01T05:09:36.574Z,86.90
2022-12-01T05:12:03.740Z,87.81
2022-12-01T05:14:30.696Z,88.11
2022-12-01T05:16:58.515Z,87.30
2022-12-01T05:19:44.205Z,87.38
2022-12-01T05:22:11.406Z,87.03
2022-12-01T05:24:38.427Z,87.51
2022-12-01T05:27:05.637Z,87.76
2022-12-01T05:29:33.274Z,87.89
2022-12-01T05:32:00.387Z,87.13
2022-12-01T05:34:27.479Z,86.30
2022-12-01T05:36:54.473Z,86.57
2022-12-01T05:39:21.572Z,86.39
2022-12-01T05:41:48.545Z,86.32
2022-12-01T05:44:15.712Z,86.89
2022-12-01T05:46:42.782Z,86.42
2022-12-01T05:49:10.328Z,85.87
2022-12-01T05:51:37.312Z,85.75
2022-12-01T05:54:04.393Z,85.40
2022-12-01T05:56:31.437Z,85.46
2022-12-01T05:58:58.458Z,84.93
2022-12-01T06:01:25.593Z,84.50
2022-12-01T06:03:54.006Z,84.96
2022-12-01T06:06:21.350Z,84.72
2022-12-01T06:08:48.443Z,84.80
2022-12-01T06:11:15.473Z,85.69
2022-12-01T06:13:42.640Z,86.06
2022-12-01T06:16:09.726Z,86.26
2022-12-01T06:18:39.155Z,85.98
2022-12-01T06:21:07.369Z,85.91
2022-12-01T06:23:34.813Z,86.43
2022-12-01T06:26:02.190Z,86.73
2022-12-01T06:28:29.435Z,87.38
2022-12-01T06:31:02.576Z,87.20
2022-12-01T06:33:31.786Z,87.57
2022-12-01T06:36:09.332Z,87.80
2022-12-01T06:38:37.430Z,88.24
2022-12-01T06:41:05.546Z,86.65
2022-12-01T06:43:32.813Z,87.23
2022-12-01T06:46:02.304Z,87.71
2022-12-01T06:48:30.470Z,87.20
2022-12-01T06:50:59.027Z,87.79
2022-12-01T06:53:27.788Z,87.78
2022-12-01T06:55:59.980Z,88.10
2022-12-01T06:58:27.443Z,88.65
2022-12-01T07:00:55.079Z,88.83
2022-12-01T07:03:22.281Z,90.20
2022-12-01T07:06:00.147Z,91.35
2022-12-01T07:08:28.685Z,92.25
2022-12-01T07:11:04.647Z,91.35
2022-12-01T07:13:33.973Z,93.17
2022-12-01T07:16:08.806Z,93.50
2022-12-01T07:18:37.467Z,94.14
2022-12-01T07:21:13.148Z,95.01
2022-12-01T07:23:40.809Z,94.81
2022-12-01T07:26:11.252Z,95.40
2022-12-01T07:28:38.392Z,96.28
2022-12-01T07:31:11.087Z,96.69
2022-12-01T07:33:38.668Z,96.70
2022-12-01T07:36:06.986Z,98.06
2022-12-01T07:38:35.335Z,98.50
2022-12-01T07:41:13.592Z,97.48
2022-12-01T07:43:41.391Z,96.40
2022-12-01T07:46:18.686Z,96.54
2022-12-01T07:48:46.508Z,97.54
2022-12-01T07:51:17.057Z,98.58
2022-12-01T07:53:45.631Z,100.00
2022-12-01T07:56:13.163Z,99.95
2022-12-01T07:58:40.467Z,100.00
2022-12-01T08:01:12.943Z,100.00
2022-12-01T08:03:41.416Z,100.00
2022-12-01T08:06:09.500Z,100.00
2022-12-01T08:08:39.031Z,100.00
2022-12-01T08:11:10.119Z,100.00
2022-12-01T08:13:37.749Z,100.00
2022-12-01T08:16:06.311Z,100.00
2022-12-01T08:18:38.562Z,100.00
2022-12-01T08:21:06.790Z,100.00
2022-12-01T08:23:34.346Z,100.00
2022-12-01T08:26:02.676Z,100.00
2022-12-01T08:28:29.997Z,100.00
2022-12-01T08:30:57.959Z,100.00
2022-12-01T08:33:25.176Z,100.00
2022-12-01T08:35:52.238Z,100.00
2022-12-01T08:38:19.327Z,100.00
2022-12-01T08:40:46.401Z,100.00
2022-12-01T08:43:28.246Z,100.00
2022-12-01T08:46:01.795Z,100.00
2022-12-01T08:48:32.399Z,100.00
2022-12-01T08:51:14.043Z,100.00
2022-12-01T08:53:45.687Z,100.00
2022-12-01T08:56:17.315Z,100.00
2022-12-01T08:58:44.181Z,99.84
2022-12-01T09:01:13.958Z,98.64
2022-12-01T09:03:41.437Z,97.67
2022-12-01T09:06:11.555Z,96.36
2022-12-01T09:08:39.494Z,94.84
2022-12-01T09:11:10.631Z,94.98
2022-12-01T09:13:39.755Z,95.89
2022-12-01T09:16:10.923Z,96.24
2022-12-01T09:18:38.682Z,95.28
2022-12-01T09:21:32.541Z,95.10
2022-12-01T09:24:01.129Z,93.99
2022-12-01T09:26:29.208Z,93.05
2022-12-01T09:29:01.619Z,93.93
2022-12-01T09:31:29.268Z,93.40
2022-12-01T09:34:07.032Z,93.42
2022-12-01T09:36:36.287Z,92.56
2022-12-01T09:39:04.864Z,91.23
2022-12-01T09:41:39.899Z,90.93
2022-12-01T09:44:33.322Z,91.64
2022-12-01T09:47:19.267Z,91.16
2022-12-01T09:50:11.044Z,90.54
2022-12-01T09:52:47.728Z,91.02
2022-12-01T09:55:17.112Z,91.25
2022-12-01T09:57:48.113Z,89.21
2022-12-01T10:00:18.911Z,90.06
2022-12-01T10:03:36.591Z,90.13
2022-12-01T10:06:27.060Z,90.09
2022-12-01T10:09:17.834Z,87.81
2022-12-01T10:11:46.980Z,87.53
2022-12-01T10:14:20.330Z,88.14
2022-12-01T10:17:28.778Z,89.63
2022-12-01T10:20:10.199Z,89.80
2022-12-01T10:23:40.037Z,89.42
2022-12-01T10:26:54.635Z,89.02
2022-12-01T10:29:33.779Z,87.95
2022-12-01T10:32:14.310Z,87.35
2022-12-01T10:34:43.702Z,85.97
2022-12-01T10:37:19.113Z,86.44
2022-12-01T10:39:49.951Z,86.37
2022-12-01T10:42:46.448Z,85.71
2022-12-01T10:45:26.645Z,85.51
2022-12-01T10:48:32.595Z,85.98
2022-12-01T10:51:17.837Z,83.20
2022-12-01T10:53:45.514Z,83.75
2022-12-01T10:56:22.308Z,83.12
2022-12-01T10:58:56.155Z,82.97
2022-12-01T11:01:26.306Z,83.48
2022-12-01T11:03:58.402Z,84.61
2022-12-01T11:06:28.225Z,82.71
2022-12-01T11:08:59.226Z,83.16
2022-12-01T11:11:41.012Z,82.98
2022-12-01T11:14:19.126Z,83.50
2022-12-01T11:16:48.530Z,83.21
2022-12-01T11:19:35.215Z,82.58
2022-12-01T11:22:18.888Z,82.08
2022-12-01T11:25:05.737Z,82.72
2022-12-01T11:27:47.555Z,83.27
2022-12-01T11:30:24.639Z,83.31
2022-12-01T11:32:58.476Z,82.77
2022-12-01T11:35:30.519Z,80.83
2022-12-01T11:38:28.195Z,81.15
2022-12-01T11:40:50.723Z,81.22
2022-12-01T11:43:41.518Z,82.84
2022-12-01T11:46:10.908Z,83.86
2022-12-01T11:48:38.356Z,84.33
2022-12-01T11:51:38.899Z,83.93
2022-12-01T11:54:18.183Z,82.60
2022-12-01T11:56:52.794Z,82.92
2022-12-01T11:59:31.681Z,83.68
2022-12-01T12:02:29.000Z,84.49
2022-12-01T12:06:17.706Z,85.65
2022-12-01T12:09:01.786Z,84.45
2022-12-01T12:11:58.901Z,85.22
2022-12-01T12:14:50.212Z,85.65
2022-12-01T12:17:44.563Z,85.83
2022-12-01T12:20:50.212Z,85.41
2022-12-01T12:24:07.668Z,87.30
2022-12-01T12:26:52.982Z,89.31
2022-12-01T12:39:17.998Z,90.45
2022-12-01T12:41:55.546Z,91.16
2022-12-01T12:48:11.487Z,89.40
2022-12-01T12:51:22.744Z,89.76
2022-12-01T12:54:05.241Z,88.73
2022-12-01T12:56:35.292Z,88.72
2022-12-01T12:59:33.334Z,89.50
2022-12-01T13:02:32.912Z,90.92
2022-12-01T13:05:51.231Z,90.28
2022-12-01T13:08:25.720Z,90.23
2022-12-01T13:10:59.804Z,89.97
2022-12-01T13:14:18.644Z,90.53
2022-12-01T13:16:51.476Z,91.52
2022-12-01T13:19:30.498Z,90.82
2022-12-01T13:21:59.767Z,90.00
2022-12-01T13:24:31.648Z,90.11
2022-12-01T13:27:07.221Z,90.25
2022-12-01T13:29:47.136Z,90.28
2022-12-01T13:32:44.276Z,91.13
2022-12-01T13:35:36.536Z,91.26
2022-12-01T13:38:34.370Z,91.77
2022-12-01T13:41:26.809Z,92.20
2022-12-01T13:44:20.199Z,92.32
2022-12-01T13:47:31.187Z,92.64
2022-12-01T13:50:55.160Z,93.22
2022-12-01T13:53:56.737Z,92.39
2022-12-01T13:56:25.863Z,92.63
2022-12-01T13:58:55.178Z,92.06
2022-12-01T14:01:43.655Z,92.03
2022-12-01T14:04:37.450Z,90.44
2022-12-01T14:07:20.292Z,90.32
2022-12-01T14:09:50.428Z,90.22
2022-12-01T14:12:38.043Z,90.01
2022-12-01T14:15:31.687Z,88.40
2022-12-01T14:18:33.132Z,87.87
2022-12-01T14:21:02.129Z,89.12
2022-12-01T14:24:02.659Z,88.98
2022-12-01T14:26:31.039Z,89.40
2022-12-01T14:29:26.558Z,89.19
2022-12-01T14:32:19.503Z,88.39
2022-12-01T14:34:50.858Z,87.65
2022-12-01T14:37:21.502Z,88.00
2022-12-01T14:40:02.074Z,87.86
2022-12-01T14:43:00.249Z,87.23
2022-12-01T14:45:35.051Z,88.08
2022-12-01T14:48:10.206Z,89.05
2022-12-01T14:50:49.564Z,89.74
2022-12-01T14:53:24.014Z,90.01
2022-12-01T14:55:56.585Z,89.59
2022-12-01T14:58:29.114Z,89.86
2022-12-01T15:01:09.197Z,89.54
2022-12-01T15:03:49.203Z,89.74
2022-12-01T15:06:19.385Z,89.59
2022-12-01T15:09:04.248Z,89.07
2022-12-01T15:11:36.152Z,89.84
2022-12-01T15:14:03.146Z,90.03
2022-12-01T15:16:32.499Z,89.96
2022-12-01T15:18:59.676Z,90.47
2022-12-01T15:21:29.978Z,90.13
2022-12-01T15:24:22.103Z,90.18
2022-12-01T15:26:59.100Z,89.98
2022-12-01T15:29:43.637Z,90.21
2022-12-01T15:32:17.150Z,90.61
2022-12-01T15:34:51.307Z,90.91
2022-12-01T15:37:22.233Z,89.83
2022-12-01T15:39:53.127Z,90.00
2022-12-01T15:42:27.685Z,90.12
2022-12-01T15:45:17.698Z,89.74
2022-12-01T15:47:46.797Z,89.45
2022-12-01T15:50:44.519Z,89.29
2022-12-01T15:53:34.572Z,89.08
2022-12-01T15:56:06.355Z,88.75
2022-12-01T15:58:41.055Z,88.58
2022-12-01T16:01:21.646Z,88.59
2022-12-01T16:03:54.203Z,88.44
2022-12-01T16:06:25.503Z,88.69
2022-12-01T16:08:57.019Z,88.10
2022-12-01T16:11:24.095Z,87.55
2022-12-01T16:14:25.054Z,87.40
2022-12-01T16:16:52.531Z,87.12
2022-12-01T16:19:30.960Z,86.91
2022-12-01T16:22:16.923Z,87.31
2022-12-01T16:24:51.329Z,87.03
2022-12-01T16:27:24.894Z,87.08
2022-12-01T16:30:03.871Z,86.98
2022-12-01T16:32:39.744Z,85.88
2022-12-01T16:35:39.175Z,86.32
2022-12-01T16:38:28.499Z,86.20
2022-12-01T16:40:57.634Z,86.54
2022-12-01T16:43:26.864Z,87.32
2022-12-01T16:46:03.502Z,87.18
2022-12-01T16:48:31.735Z,85.25
2022-12-01T16:51:02.754Z,85.75
2022-12-01T16:53:29.822Z,86.50
2022-12-01T16:55:59.381Z,85.96
2022-12-01T16:58:26.816Z,85.01
2022-12-01T17:00:54.134Z,84.05
2022-12-01T17:03:26.898Z,83.66
2022-12-01T17:05:54.438Z,83.54
2022-12-01T17:08:22.169Z,84.26
2022-12-01T17:10:50.673Z,85.35
2022-12-01T17:13:19.111Z,85.87
2022-12-01T17:15:47.992Z,86.52
2022-12-01T17:18:16.715Z,85.93
2022-12-01T17:20:44.313Z,85.37
2022-12-01T17:23:11.843Z,85.46
2022-12-01T17:25:42.677Z,84.96
2022-12-01T17:28:22.021Z,84.45
2022-12-01T17:30:49.177Z,84.54
2022-12-01T17:33:16.333Z,84.56
2022-12-01T17:35:44.378Z,84.51
2022-12-01T17:38:11.525Z,84.86
2022-12-01T17:40:38.722Z,84.82
2022-12-01T17:43:08.338Z,82.96
2022-12-01T17:45:36.093Z,83.51
2022-12-01T17:48:03.014Z,83.97
2022-12-01T17:50:30.044Z,84.30
2022-12-01T17:52:57.191Z,84.14
2022-12-01T17:55:24.416Z,84.04
2022-12-01T17:57:51.396Z,84.17
2022-12-01T18:00:19.243Z,84.53
2022-12-01T18:02:47.865Z,83.12
2022-12-01T18:05:15.207Z,82.61
2022-12-01T18:07:42.526Z,83.11
2022-12-01T18:10:10.091Z,83.57
2022-12-01T18:12:37.060Z,82.96
2022-12-01T18:15:05.190Z,82.96
2022-12-01T18:17:32.320Z,83.13
2022-12-01T18:19:59.237Z,83.54
2022-12-01T18:22:26.402Z,83.69
2022-12-01T18:24:53.912Z,83.99
2022-12-01T18:27:20.946Z,84.61
2022-12-01T18:29:48.055Z,84.96
2022-12-01T18:32:15.298Z,85.45
2022-12-01T18:34:43.072Z,85.19
2022-12-01T18:37:10.273Z,85.71
2022-12-01T18:39:37.196Z,85.44
2022-12-01T18:42:04.957Z,86.06
2022-12-01T18:44:32.077Z,86.45
2022-12-01T18:46:59.234Z,86.87
2022-12-01T18:49:26.423Z,87.50
2022-12-01T18:51:53.408Z,87.49
2022-12-01T18:54:20.477Z,87.69
2022-12-01T18:56:51.931Z,87.91
2022-12-01T18:59:19.768Z,88.13
2022-12-01T19:01:48.920Z,88.07
2022-12-01T19:04:16.932Z,88.09
2022-12-01T19:06:45.794Z,88.47
2022-12-01T19:09:14.915Z,87.99
2022-12-01T19:11:42.662Z,86.86
2022-12-01T19:14:16.146Z,86.80
2022-12-01T19:16:43.402Z,87.17
2022-12-01T19:19:10.648Z,86.78
2022-12-01T19:21:37.727Z,86.49
2022-12-01T19:24:05.333Z,86.22
2022-12-01T19:26:32.509Z,86.37
2022-12-01T19:28:59.871Z,86.59
2022-12-01T19:31:26.967Z,86.13
2022-12-01T19:33:54.866Z,86.39
2022-12-01T19:36:25.623Z,86.68
2022-12-01T19:38:53.554Z,86.40
2022-12-01T19:41:21.654Z,86.46
2022-12-01T19:43:48.712Z,86.19
2022-12-01T19:46:18.673Z,86.87
2022-12-01T19:48:46.424Z,87.10
2022-12-01T19:51:18.938Z,87.38
2022-12-01T19:53:47.250Z,87.39
2022-12-01T19:56:14.895Z,87.21
2022-12-01T19:58:41.957Z,87.29
2022-12-01T20:01:15.286Z,87.32
2022-12-01T20:03:45.923Z,87.81
2022-12-01T20:06:18.973Z,87.65
2022-12-01T20:08:46.701Z,87.79
2022-12-01T20:11:14.699Z,87.20
2022-12-01T20:13:43.378Z,86.35
2022-12-01T20:16:22.429Z,85.38
2022-12-01T20:18:50.060Z,85.30
2022-12-01T20:21:27.415Z,86.94
2022-12-01T20:23:59.678Z,88.40
2022-12-01T20:26:40.312Z,89.32
2022-12-01T20:29:14.110Z,89.62
2022-12-01T20:31:41.782Z,90.72
2022-12-01T20:34:11.981Z,90.96
2022-12-01T20:36:39.452Z,90.86
2022-12-01T20:39:09.932Z,91.76
2022-12-01T20:41:37.760Z,92.38
2022-12-01T20:44:07.501Z,92.21
2022-12-01T20:46:36.502Z,92.31
2022-12-01T20:49:05.061Z,92.45
2022-12-01T20:51:34.127Z,91.04
2022-12-01T20:56:49.490Z,92.40
2022-12-01T20:59:16.469Z,92.88
2022-12-01T21:01:43.532Z,93.34
2022-12-01T21:04:10.589Z,93.04
2022-12-01T21:06:37.563Z,92.55
2022-12-01T21:09:05.137Z,91.90
2022-12-01T21:12:01.131Z,91.48
2022-12-01T21:14:37.912Z,91.17
2022-12-01T21:17:30.007Z,90.83
2022-12-01T21:20:07.120Z,91.07
2022-12-01T21:22:34.447Z,91.33
2022-12-01T21:25:12.865Z,91.23
2022-12-01T21:27:42.020Z,91.65
2022-12-01T21:30:18.536Z,91.74
2022-12-01T21:32:47.457Z,91.67
2022-12-01T21:35:20.685Z,91.83
2022-12-01T21:37:48.788Z,92.00
2022-12-01T21:40:24.257Z,91.46
2022-12-01T21:42:51.727Z,91.50
2022-12-01T21:45:27.733Z,92.02
2022-12-01T21:48:00.794Z,92.10
2022-12-01T21:50:28.134Z,92.49
2022-12-01T21:52:55.355Z,91.95
2022-12-01T21:55:40.695Z,91.79
2022-12-01T21:58:25.706Z,92.04
2022-12-01T22:00:54.983Z,91.92
2022-12-01T22:03:38.259Z,90.92
2022-12-01T22:06:32.646Z,91.24
2022-12-01T22:09:19.901Z,91.07
2022-12-01T22:11:52.606Z,90.80
2022-12-01T22:14:37.466Z,90.64
2022-12-01T22:17:22.316Z,90.03
2022-12-01T22:19:58.319Z,90.26
2022-12-01T22:22:27.912Z,90.17
2022-12-01T22:25:19.081Z,90.13
2022-12-01T22:27:46.249Z,90.56
2022-12-01T22:30:21.223Z,90.06
2022-12-01T22:33:00.557Z,90.60
2022-12-01T22:35:51.011Z,90.43
2022-12-01T22:38:38.135Z,90.40
2022-12-01T22:41:16.882Z,91.09
2022-12-01T22:43:47.306Z,90.96
2022-12-01T22:46:40.056Z,91.04
2022-12-01T22:49:21.136Z,90.77
2022-12-01T22:52:14.632Z,91.06
2022-12-01T22:54:50.005Z,90.90
2022-12-01T22:57:29.736Z,90.40
2022-12-01T22:59:57.366Z,90.48
2022-12-01T23:02:30.314Z,90.74
2022-12-01T23:05:01.236Z,90.90
2022-12-01T23:07:36.824Z,90.79
2022-12-01T23:10:31.474Z,90.59
2022-12-01T23:13:01.433Z,90.62
2022-12-01T23:15:38.226Z,90.70
2022-12-01T23:18:24.519Z,90.89
2022-12-01T23:20:56.230Z,90.66
2022-12-01T23:23:28.951Z,89.91
2022-12-01T23:25:56.781Z,89.86
2022-12-01T23:28:24.849Z,90.20
2022-12-01T23:30:55.511Z,91.24
2022-12-01T23:33:29.220Z,92.07
2022-12-01T23:36:23.298Z,91.93
2022-12-01T23:38:53.483Z,92.28
2022-12-01T23:41:35.840Z,92.45
2022-12-01T23:44:46.909Z,92.58
2022-12-01T23:47:21.429Z,93.23
2022-12-01T23:50:01.481Z,93.89
2022-12-01T23:52:36.024Z,93.83
2022-12-01T23:55:11.502Z,94.11
2022-12-01T23:57:38.449Z,94.74
